createdAt,value
2023-03-18T00:01:11.012Z,10.95
2023-03-18T00:03:39.339Z,11.20
2023-03-18T00:06:09.710Z,11.30
2023-03-18T00:08:39.376Z,11.17
2023-03-18T00:11:10.018Z,10.98
2023-03-18T00:13:38.385Z,10.70
2023-03-18T00:16:07.598Z,11.82
2023-03-18T00:18:35.811Z,10.20
2023-03-18T00:21:04.307Z,11.37
2023-03-18T00:23:33.534Z,10.63
2023-03-18T00:26:02.566Z,11.45
2023-03-18T00:28:32.652Z,10.55
2023-03-18T00:31:05.301Z,11.38
2023-03-18T00:33:33.792Z,10.73
2023-03-18T00:36:01.732Z,11.95
2023-03-18T00:38:30.422Z,11.00
2023-03-18T00:41:10.990Z,11.38
2023-03-18T00:43:47.321Z,11.35
2023-03-18T00:46:17.702Z,11.50
2023-03-18T00:48:46.294Z,11.75
2023-03-18T00:51:17.120Z,11.70
2023-03-18T00:53:47.602Z,10.57
2023-03-18T00:56:16.844Z,11.65
2023-03-18T00:58:46.750Z,11.60
2023-03-18T01:01:15.423Z,11.32
2023-03-18T01:03:44.228Z,10.95
2023-03-18T01:06:14.238Z,11.90
2023-03-18T01:08:42.739Z,12.27
2023-03-18T01:11:11.735Z,12.53
2023-03-18T01:13:40.438Z,12.15
2023-03-18T01:16:10.768Z,13.02
2023-03-18T01:18:40.067Z,12.73
2023-03-18T01:21:08.703Z,12.60
2023-03-18T01:23:41.028Z,13.43
2023-03-18T01:26:09.746Z,12.68
2023-03-18T01:28:41.267Z,14.35
2023-03-18T01:31:12.620Z,14.13
2023-03-18T01:33:42.445Z,14.20
2023-03-18T01:36:11.554Z,14.43
2023-03-18T01:38:40.836Z,14.63
2023-03-18T01:41:12.603Z,14.00
2023-03-18T01:43:43.978Z,14.18
2023-03-18T01:46:36.975Z,13.63
2023-03-18T01:49:10.736Z,14.17
2023-03-18T01:51:39.510Z,13.75
2023-03-18T01:54:08.989Z,13.30
2023-03-18T01:56:39.446Z,13.93
2023-03-18T01:59:09.393Z,14.77
2023-03-18T02:01:46.703Z,13.60
2023-03-18T02:06:43.745Z,13.27
2023-03-18T02:09:13.075Z,12.48
2023-03-18T02:11:46.281Z,13.02
2023-03-18T02:14:20.150Z,13.67
2023-03-18T02:16:56.503Z,13.40
2023-03-18T02:19:37.677Z,13.50
2023-03-18T02:22:16.362Z,12.75
2023-03-18T02:24:51.520Z,12.65
2023-03-18T02:27:24.163Z,12.73
2023-03-18T02:29:55.114Z,13.75
2023-03-18T02:32:23.394Z,14.00
2023-03-18T02:34:51.556Z,13.25
2023-03-18T02:37:19.418Z,13.35
2023-03-18T02:39:47.292Z,14.00
2023-03-18T02:42:16.957Z,13.70
2023-03-18T02:44:52.892Z,13.50
2023-03-18T02:47:42.143Z,13.75
2023-03-18T02:50:10.821Z,13.50
2023-03-18T02:52:38.945Z,13.43
2023-03-18T02:55:08.342Z,13.52
2023-03-18T02:57:37.436Z,13.32
2023-03-18T03:00:08.474Z,13.43
2023-03-18T03:02:37.010Z,12.90
2023-03-18T03:05:05.385Z,12.40
2023-03-18T03:07:33.510Z,13.00
2023-03-18T03:10:04.012Z,13.20
2023-03-18T03:12:31.902Z,13.38
2023-03-18T03:15:01.040Z,14.73
2023-03-18T03:17:33.616Z,14.17
2023-03-18T03:20:01.478Z,14.68
2023-03-18T03:22:30.331Z,15.00
2023-03-18T03:24:58.205Z,14.30
2023-03-18T03:27:26.093Z,15.38
2023-03-18T03:29:55.364Z,14.97
2023-03-18T03:32:23.698Z,15.20
2023-03-18T03:34:52.909Z,14.10
2023-03-18T03:37:20.728Z,14.02
2023-03-18T03:39:48.991Z,13.60
2023-03-18T03:42:16.794Z,14.37
2023-03-18T03:44:44.735Z,13.32
2023-03-18T03:47:12.968Z,12.98
2023-03-18T03:49:41.580Z,13.65
2023-03-18T03:52:12.216Z,13.95
2023-03-18T03:54:41.956Z,13.70
2023-03-18T03:57:10.419Z,13.60
2023-03-18T03:59:38.445Z,14.38
2023-03-18T04:02:27.566Z,13.20
2023-03-18T04:04:56.935Z,13.35
2023-03-18T04:07:30.186Z,13.50
2023-03-18T04:09:58.858Z,13.68
2023-03-18T04:12:26.687Z,12.95
2023-03-18T04:14:59.192Z,13.93
2023-03-18T04:17:27.438Z,14.30
2023-03-18T04:19:55.577Z,13.80
2023-03-18T04:22:29.601Z,14.23
2023-03-18T04:24:59.244Z,13.85
2023-03-18T04:27:28.114Z,14.52
2023-03-18T04:29:57.916Z,14.75
2023-03-18T04:32:32.427Z,14.33
2023-03-18T04:35:00.822Z,15.05
2023-03-18T04:37:29.314Z,15.40
2023-03-18T04:40:02.522Z,15.38
2023-03-18T04:42:30.921Z,14.07
2023-03-18T04:44:59.093Z,15.03
2023-03-18T04:47:27.954Z,14.80
2023-03-18T04:49:55.904Z,15.95
2023-03-18T04:52:24.592Z,16.27
2023-03-18T04:54:52.578Z,16.25
2023-03-18T04:57:22.082Z,16.10
2023-03-18T04:59:54.532Z,16.15
2023-03-18T05:02:23.282Z,16.50
2023-03-18T05:04:51.307Z,17.55
2023-03-18T05:07:20.325Z,17.40
2023-03-18T05:09:57.153Z,17.20
2023-03-18T05:12:26.561Z,16.83
2023-03-18T05:14:54.875Z,16.40
2023-03-18T05:17:22.745Z,17.13
2023-03-18T05:19:57.394Z,17.08
2023-03-18T05:22:25.330Z,15.93
2023-03-18T05:25:11.120Z,16.90
2023-03-18T05:27:42.558Z,17.38
2023-03-18T05:30:22.138Z,16.75
2023-03-18T05:32:52.715Z,18.20
2023-03-18T05:35:25.036Z,16.43
2023-03-18T05:37:54.588Z,17.77
2023-03-18T05:40:24.033Z,18.05
2023-03-18T05:43:08.861Z,18.23
2023-03-18T05:45:42.243Z,16.60
2023-03-18T05:48:12.709Z,18.00
2023-03-18T05:50:50.304Z,17.13
2023-03-18T05:53:22.127Z,17.73
2023-03-18T05:55:54.645Z,16.60
2023-03-18T05:58:24.064Z,17.23
2023-03-18T06:00:58.986Z,17.37
2023-03-18T06:03:27.612Z,17.40
2023-03-18T06:05:55.512Z,16.92
2023-03-18T06:08:23.654Z,17.60
2023-03-18T06:10:51.506Z,19.48
2023-03-18T06:13:19.649Z,17.07
2023-03-18T06:15:48.973Z,16.92
2023-03-18T06:18:17.089Z,17.67
2023-03-18T06:20:44.919Z,17.50
2023-03-18T06:23:13.503Z,17.48
2023-03-18T06:25:42.050Z,18.07
2023-03-18T06:28:10.283Z,16.65
2023-03-18T06:30:38.695Z,17.63
2023-03-18T06:33:08.568Z,16.92
2023-03-18T06:35:38.756Z,17.55
2023-03-18T06:38:06.541Z,16.90
2023-03-18T06:40:37.672Z,16.88
2023-03-18T06:43:06.040Z,16.83
2023-03-18T06:45:37.699Z,16.35
2023-03-18T06:48:10.473Z,15.77
2023-03-18T06:50:42.158Z,16.30
2023-03-18T06:53:17.692Z,16.13
2023-03-18T06:55:46.663Z,16.67
2023-03-18T06:58:14.554Z,16.02
2023-03-18T07:00:49.203Z,16.52
2023-03-18T07:03:28.133Z,15.87
2023-03-18T07:05:57.319Z,16.13
2023-03-18T07:08:25.957Z,15.70
2023-03-18T07:10:57.073Z,16.38
2023-03-18T07:13:26.356Z,16.15
2023-03-18T07:15:56.504Z,15.43
2023-03-18T07:18:27.333Z,14.60
2023-03-18T07:20:55.342Z,16.05
2023-03-18T07:23:24.655Z,14.02
2023-03-18T07:25:52.635Z,13.88
2023-03-18T07:28:21.005Z,14.77
2023-03-18T07:30:49.840Z,15.15
2023-03-18T07:33:18.107Z,15.00
2023-03-18T07:35:48.283Z,14.07
2023-03-18T07:38:18.169Z,14.38
2023-03-18T07:40:46.341Z,15.23
2023-03-18T07:43:14.271Z,14.75
2023-03-18T07:45:42.333Z,14.50
2023-03-18T07:48:10.136Z,14.95
2023-03-18T07:50:37.988Z,15.00
2023-03-18T07:53:07.091Z,14.43
2023-03-18T07:55:35.099Z,15.27
2023-03-18T07:58:04.668Z,15.57
2023-03-18T08:00:32.616Z,15.30
2023-03-18T08:03:00.370Z,16.50
2023-03-18T08:05:28.474Z,16.60
2023-03-18T08:07:56.445Z,17.38
2023-03-18T08:10:25.653Z,16.20
2023-03-18T08:12:54.074Z,15.95
2023-03-18T08:15:22.948Z,15.77
2023-03-18T08:17:51.102Z,15.63
2023-03-18T08:20:19.329Z,15.88
2023-03-18T08:22:47.175Z,15.68
2023-03-18T08:25:15.062Z,15.57
2023-03-18T08:27:44.364Z,14.95
2023-03-18T08:30:13.734Z,15.60
2023-03-18T08:32:42.083Z,15.23
2023-03-18T08:35:11.225Z,16.42
2023-03-18T08:37:39.051Z,15.88
2023-03-18T08:40:09.665Z,15.70
2023-03-18T08:42:37.461Z,16.53
2023-03-18T08:45:07.914Z,14.65
2023-03-18T08:47:36.101Z,14.80
2023-03-18T08:50:04.054Z,13.25
2023-03-18T08:52:32.316Z,13.73
2023-03-18T08:55:00.273Z,12.83
2023-03-18T08:57:28.322Z,12.65
2023-03-18T08:59:56.231Z,11.98
2023-03-18T09:02:25.677Z,11.13
2023-03-18T09:04:54.942Z,11.35
2023-03-18T09:07:22.921Z,10.93
2023-03-18T09:09:50.743Z,10.80
2023-03-18T09:12:19.314Z,11.15
2023-03-18T09:14:47.277Z,10.90
2023-03-18T09:17:15.774Z,11.15
2023-03-18T09:19:45.339Z,10.67
2023-03-18T09:22:13.209Z,10.43
2023-03-18T09:24:41.558Z,9.98
2023-03-18T09:27:09.467Z,10.23
2023-03-18T09:29:37.334Z,9.48
2023-03-18T09:32:05.952Z,10.00
2023-03-18T09:34:33.817Z,10.57
2023-03-18T09:37:03.058Z,10.50
2023-03-18T09:39:30.919Z,10.27
2023-03-18T09:42:11.557Z,11.35
2023-03-18T09:44:40.114Z,11.07
2023-03-18T09:47:24.758Z,10.95
2023-03-18T09:50:09.047Z,11.45
2023-03-18T09:52:44.212Z,11.20
2023-03-18T09:55:22.882Z,9.82
2023-03-18T09:57:53.985Z,9.70
2023-03-18T10:00:25.942Z,10.15
2023-03-18T10:02:59.014Z,9.00
2023-03-18T10:05:32.613Z,8.98
2023-03-18T10:08:07.874Z,9.52
2023-03-18T10:10:39.296Z,9.20
2023-03-18T10:13:15.469Z,9.23
2023-03-18T10:15:46.842Z,8.95
2023-03-18T10:18:22.364Z,9.38
2023-03-18T10:21:04.104Z,9.15
2023-03-18T10:23:43.914Z,7.10
2023-03-18T10:26:17.454Z,9.65
2023-03-18T10:29:01.522Z,8.50
2023-03-18T10:31:43.934Z,8.07
2023-03-18T10:34:16.373Z,8.93
2023-03-18T10:36:51.066Z,9.13
2023-03-18T10:39:23.887Z,10.00
2023-03-18T10:41:53.926Z,10.00
2023-03-18T10:44:24.801Z,9.63
2023-03-18T10:47:00.336Z,8.65
2023-03-18T10:49:32.854Z,8.80
2023-03-18T10:52:07.653Z,8.82
2023-03-18T10:54:41.383Z,7.15
2023-03-18T10:57:14.102Z,8.30
2023-03-18T10:59:44.638Z,8.18
2023-03-18T11:02:19.635Z,8.27
2023-03-18T11:04:54.386Z,8.43
2023-03-18T11:07:26.619Z,8.60
2023-03-18T11:10:06.126Z,7.53
2023-03-18T11:12:34.449Z,8.23
2023-03-18T11:15:02.284Z,8.50
2023-03-18T11:17:33.568Z,9.15
2023-03-18T11:20:07.411Z,8.80
2023-03-18T11:22:37.472Z,9.00
2023-03-18T11:25:15.013Z,8.82
2023-03-18T11:27:45.865Z,8.37
2023-03-18T11:30:33.282Z,9.50
2023-03-18T11:33:05.954Z,8.43
2023-03-18T11:35:38.690Z,8.13
2023-03-18T11:38:07.455Z,8.13
2023-03-18T11:40:40.607Z,8.20
2023-03-18T11:43:18.688Z,8.63
2023-03-18T11:45:57.515Z,7.55
2023-03-18T11:48:31.369Z,7.40
2023-03-18T11:51:29.442Z,7.20
2023-03-18T11:54:09.555Z,7.23
2023-03-18T11:56:44.688Z,7.97
2023-03-18T11:59:27.752Z,7.43
2023-03-18T12:02:08.040Z,7.50
2023-03-18T12:04:56.292Z,8.50
2023-03-18T12:07:38.497Z,7.83
2023-03-18T12:10:20.054Z,8.50
2023-03-18T12:13:09.462Z,8.45
2023-03-18T12:15:47.173Z,8.18
2023-03-18T12:18:34.186Z,8.50
2023-03-18T12:21:09.960Z,8.57
2023-03-18T12:24:07.997Z,8.82
2023-03-18T12:26:41.611Z,7.40
2023-03-18T12:29:43.735Z,7.72
2023-03-18T12:32:23.355Z,7.25
2023-03-18T12:35:05.740Z,7.13
2023-03-18T12:37:47.238Z,8.35
2023-03-18T12:40:26.045Z,7.93
2023-03-18T12:43:08.863Z,8.38
2023-03-18T12:45:42.625Z,8.40
2023-03-18T12:48:15.590Z,9.60
2023-03-18T12:50:48.442Z,8.85
2023-03-18T12:53:20.232Z,8.07
2023-03-18T12:55:51.753Z,7.70
2023-03-18T12:58:24.216Z,7.13
2023-03-18T13:00:58.920Z,6.73
2023-03-18T13:03:33.676Z,6.80
2023-03-18T13:06:05.154Z,6.97
2023-03-18T13:08:54.121Z,6.88
2023-03-18T13:11:55.329Z,7.28
2023-03-18T13:14:29.743Z,6.47
2023-03-18T13:17:00.239Z,6.93
2023-03-18T13:19:28.457Z,7.63
2023-03-18T13:22:08.806Z,7.05
2023-03-18T13:24:57.073Z,7.70
2023-03-18T13:27:52.277Z,7.90
2023-03-18T13:30:32.783Z,7.18
2023-03-18T13:33:31.005Z,7.10
2023-03-18T13:36:16.934Z,7.75
2023-03-18T13:39:05.313Z,8.45
2023-03-18T13:41:44.270Z,8.23
2023-03-18T13:44:17.858Z,7.90
2023-03-18T13:46:56.026Z,8.15
2023-03-18T13:49:28.275Z,8.25
2023-03-18T13:51:58.973Z,8.07
2023-03-18T13:54:34.711Z,8.20
2023-03-18T13:57:19.391Z,7.68
2023-03-18T13:59:49.709Z,8.63
2023-03-18T14:02:42.550Z,8.60
2023-03-18T14:05:37.088Z,7.82
2023-03-18T14:08:07.230Z,8.03
2023-03-18T14:10:35.496Z,7.07
2023-03-18T14:13:26.924Z,6.50
2023-03-18T14:15:57.450Z,5.90
2023-03-18T14:18:28.625Z,5.35
2023-03-18T14:21:04.600Z,5.60
2023-03-18T14:23:39.406Z,5.10
2023-03-18T14:26:09.549Z,5.07
2023-03-18T14:28:49.789Z,5.60
2023-03-18T14:31:27.554Z,6.40
2023-03-18T14:34:18.056Z,6.10
2023-03-18T14:37:26.661Z,6.40
2023-03-18T14:39:57.154Z,7.05
2023-03-18T14:42:32.199Z,7.53
2023-03-18T14:45:06.767Z,7.85
2023-03-18T14:47:43.519Z,7.63
2023-03-18T14:50:39.305Z,8.00
2023-03-18T14:53:17.298Z,6.93
2023-03-18T14:55:45.611Z,7.55
2023-03-18T14:58:17.532Z,6.45
2023-03-18T15:00:47.991Z,6.20
2023-03-18T15:03:20.866Z,5.47
2023-03-18T15:05:50.399Z,4.50
2023-03-18T15:08:26.343Z,4.90
2023-03-18T15:10:58.716Z,5.70
2023-03-18T15:13:27.311Z,4.53
2023-03-18T15:15:57.985Z,4.07
2023-03-18T15:18:29.375Z,4.28
2023-03-18T15:21:01.563Z,4.20
2023-03-18T15:23:33.661Z,4.75
2023-03-18T15:26:04.136Z,5.80
2023-03-18T15:28:33.205Z,4.85
2023-03-18T15:31:02.390Z,4.85
2023-03-18T15:33:34.910Z,4.43
2023-03-18T15:36:06.962Z,3.80
2023-03-18T15:38:36.778Z,4.00
2023-03-18T15:41:07.361Z,3.60
2023-03-18T15:43:43.684Z,3.20
2023-03-18T15:46:24.452Z,2.80
2023-03-18T15:48:55.676Z,2.63
2023-03-18T15:51:30.174Z,2.50
2023-03-18T15:54:05.827Z,2.25
2023-03-18T15:56:54.998Z,2.97
2023-03-18T15:59:27.364Z,2.70
2023-03-18T16:01:56.343Z,2.40
2023-03-18T16:04:25.503Z,2.73
2023-03-18T16:06:53.757Z,2.40
2023-03-18T16:09:25.732Z,2.28
2023-03-18T16:11:57.452Z,2.13
2023-03-18T16:14:29.738Z,2.47
2023-03-18T16:16:58.072Z,1.90
2023-03-18T16:19:28.917Z,1.92
2023-03-18T16:21:58.830Z,1.70
2023-03-18T16:24:28.850Z,1.52
2023-03-18T16:26:57.508Z,1.70
2023-03-18T16:29:28.886Z,1.57
2023-03-18T16:31:57.065Z,1.77
2023-03-18T16:34:25.170Z,2.03
2023-03-18T16:36:53.545Z,1.80
2023-03-18T16:39:24.248Z,2.10
2023-03-18T16:41:53.768Z,2.17
2023-03-18T16:44:23.630Z,2.03
2023-03-18T16:46:54.685Z,2.70
2023-03-18T16:49:25.103Z,2.20
2023-03-18T16:51:53.543Z,4.20
2023-03-18T16:54:23.656Z,3.90
2023-03-18T16:56:55.992Z,2.88
2023-03-18T16:59:24.950Z,1.50
2023-03-18T17:01:54.224Z,1.60
2023-03-18T17:04:28.447Z,1.40
2023-03-18T17:06:57.334Z,1.30
2023-03-18T17:09:26.494Z,1.33
2023-03-18T17:11:59.071Z,1.30
2023-03-18T17:14:33.772Z,1.23
2023-03-18T17:17:03.836Z,1.50
2023-03-18T17:19:31.754Z,2.20
2023-03-18T17:21:59.930Z,1.75
2023-03-18T17:24:27.944Z,1.50
2023-03-18T17:26:58.820Z,2.83
2023-03-18T17:29:29.485Z,3.97
2023-03-18T17:31:58.146Z,4.93
2023-03-18T17:34:26.590Z,5.28
2023-03-18T17:36:55.204Z,15.30
2023-03-18T17:39:23.514Z,59.95
2023-03-18T17:41:51.797Z,24.00
2023-03-18T17:44:29.725Z,20.57
2023-03-18T17:46:58.349Z,4.93
2023-03-18T17:49:28.132Z,4.60
2023-03-18T17:51:57.212Z,2.83
2023-03-18T17:54:27.169Z,2.13
2023-03-18T17:56:56.026Z,2.20
2023-03-18T17:59:25.503Z,2.30
2023-03-18T18:01:53.671Z,2.70
2023-03-18T18:04:24.915Z,2.58
2023-03-18T18:06:53.485Z,2.70
2023-03-18T18:09:21.753Z,3.13
2023-03-18T18:11:50.829Z,3.00
2023-03-18T18:14:21.669Z,2.88
2023-03-18T18:16:51.629Z,2.67
2023-03-18T18:19:19.572Z,3.42
2023-03-18T18:21:48.270Z,3.80
2023-03-18T18:24:22.939Z,3.15
2023-03-18T18:26:51.144Z,3.20
2023-03-18T18:29:21.469Z,4.82
2023-03-18T18:31:53.798Z,8.18
2023-03-18T18:34:22.164Z,8.00
2023-03-18T18:36:50.976Z,6.70
2023-03-18T18:39:19.177Z,3.17
2023-03-18T18:41:47.681Z,3.25
2023-03-18T18:44:16.275Z,2.90
2023-03-18T18:46:44.555Z,2.80
2023-03-18T18:49:21.854Z,3.28
2023-03-18T18:51:49.962Z,2.53
2023-03-18T18:54:17.798Z,2.45
2023-03-18T18:56:45.786Z,3.75
2023-03-18T18:59:23.338Z,3.63
2023-03-18T19:01:51.956Z,4.82
2023-03-18T19:04:22.884Z,3.53
2023-03-18T19:06:51.643Z,2.55
2023-03-18T19:09:21.931Z,2.92
2023-03-18T19:11:50.130Z,2.80
2023-03-18T19:14:20.628Z,3.10
2023-03-18T19:16:49.207Z,3.17
2023-03-18T19:19:20.009Z,3.08
2023-03-18T19:21:50.817Z,3.35
2023-03-18T19:24:27.399Z,3.17
2023-03-18T19:26:56.430Z,2.92
2023-03-18T19:29:24.658Z,3.10
2023-03-18T19:31:52.761Z,3.70
2023-03-18T19:34:22.072Z,3.17
2023-03-18T19:36:54.095Z,4.73
2023-03-18T19:39:22.907Z,5.18
2023-03-18T19:41:51.203Z,4.20
2023-03-18T19:44:21.076Z,4.43
2023-03-18T19:46:50.821Z,4.38
2023-03-18T19:49:20.615Z,4.10
2023-03-18T19:51:49.753Z,4.70
2023-03-18T19:54:29.042Z,4.55
2023-03-18T19:57:00.303Z,4.65
2023-03-18T19:59:37.303Z,4.53
2023-03-18T20:02:17.768Z,4.80
2023-03-18T20:04:45.617Z,4.43
2023-03-18T20:07:13.353Z,4.80
2023-03-18T20:09:42.672Z,4.50
2023-03-18T20:12:21.461Z,4.78
2023-03-18T20:14:49.634Z,5.10
2023-03-18T20:17:33.384Z,4.38
2023-03-18T20:20:04.627Z,4.57
2023-03-18T20:22:35.642Z,4.35
2023-03-18T20:25:16.889Z,3.83
2023-03-18T20:27:47.358Z,3.63
2023-03-18T20:30:25.084Z,3.40
2023-03-18T20:32:53.326Z,2.97
2023-03-18T20:35:22.229Z,2.95
2023-03-18T20:37:50.299Z,2.85
2023-03-18T20:40:25.581Z,3.60
2023-03-18T20:42:55.254Z,3.30
2023-03-18T20:45:25.034Z,3.40
2023-03-18T20:47:55.449Z,2.92
2023-03-18T20:50:29.744Z,3.15
2023-03-18T20:53:00.728Z,2.80
2023-03-18T20:55:32.812Z,2.72
2023-03-18T20:58:01.784Z,2.85
2023-03-18T21:00:32.249Z,2.30
2023-03-18T21:03:02.481Z,2.08
2023-03-18T21:05:33.283Z,1.80
2023-03-18T21:08:01.320Z,1.80
2023-03-18T21:10:31.167Z,1.67
2023-03-18T21:12:58.994Z,1.50
2023-03-18T21:15:28.873Z,1.50
2023-03-18T21:17:57.010Z,1.60
2023-03-18T21:20:29.377Z,1.27
2023-03-18T21:22:57.248Z,1.30
2023-03-18T21:25:27.043Z,1.58
2023-03-18T21:27:56.368Z,1.60
2023-03-18T21:30:24.794Z,1.43
2023-03-18T21:32:52.646Z,1.20
2023-03-18T21:35:23.043Z,1.77
2023-03-18T21:37:51.345Z,1.70
2023-03-18T21:40:21.617Z,1.65
2023-03-18T21:42:49.902Z,1.70
2023-03-18T21:45:22.769Z,1.90
2023-03-18T21:47:52.442Z,2.33
2023-03-18T21:50:21.832Z,2.03
2023-03-18T21:52:49.866Z,2.20
2023-03-18T21:55:18.425Z,2.20
2023-03-18T21:57:48.855Z,2.30
2023-03-18T22:00:21.133Z,2.60
2023-03-18T22:02:49.756Z,2.40
2023-03-18T22:05:19.452Z,2.72
2023-03-18T22:07:47.650Z,3.20
2023-03-18T22:10:16.532Z,3.10
2023-03-18T22:12:44.553Z,3.60
2023-03-18T22:15:34.440Z,3.50
2023-03-18T22:18:02.562Z,4.10
2023-03-18T22:20:30.695Z,4.27
2023-03-18T22:22:58.570Z,4.25
2023-03-18T22:25:30.603Z,4.25
2023-03-18T22:27:58.752Z,4.25
2023-03-18T22:30:29.346Z,4.35
2023-03-18T22:32:59.548Z,3.93
2023-03-18T22:35:29.415Z,3.85
2023-03-18T22:37:57.739Z,3.83
2023-03-18T22:40:27.205Z,3.72
2023-03-18T22:42:57.156Z,3.35
2023-03-18T22:45:26.888Z,3.77
2023-03-18T22:47:58.955Z,3.53
2023-03-18T22:50:28.700Z,4.45
2023-03-18T22:53:02.067Z,4.70
2023-03-18T22:55:33.889Z,4.50
2023-03-18T22:58:01.976Z,4.70
2023-03-18T23:00:36.373Z,4.38
2023-03-18T23:03:12.780Z,5.28
2023-03-18T23:05:40.706Z,5.63
2023-03-18T23:08:08.685Z,5.60
2023-03-18T23:10:37.830Z,5.90
2023-03-18T23:13:14.157Z,6.15
2023-03-18T23:15:42.047Z,6.03
2023-03-18T23:18:14.639Z,5.85
2023-03-18T23:20:42.849Z,6.35
2023-03-18T23:23:10.932Z,7.00
2023-03-18T23:25:39.128Z,6.80
2023-03-18T23:28:06.973Z,6.93
2023-03-18T23:30:35.145Z,7.10
2023-03-18T23:33:03.819Z,7.68
2023-03-18T23:35:33.581Z,8.20
2023-03-18T23:38:01.645Z,8.27
2023-03-18T23:40:29.945Z,8.43
2023-03-18T23:42:57.917Z,8.65
2023-03-18T23:45:27.065Z,8.50
2023-03-18T23:47:55.202Z,10.07
2023-03-18T23:50:23.353Z,9.43
2023-03-18T23:52:52.548Z,9.57
2023-03-18T23:55:45.801Z,9.18
2023-03-18T23:58:09.207Z,10.07
